createdAt,value
2018-08-22T00:00:00.981Z,24.55
2018-08-22T00:02:27.998Z,24.55
2018-08-22T00:04:54.932Z,24.55
2018-08-22T00:07:22.155Z,24.56
2018-08-22T00:09:49.168Z,24.55
2018-08-22T00:12:16.168Z,24.55
2018-08-22T00:14:43.174Z,24.56
2018-08-22T00:17:10.147Z,24.56
2018-08-22T00:19:37.136Z,24.56
2018-08-22T00:22:04.129Z,24.56
2018-08-22T00:24:31.114Z,24.55
2018-08-22T00:26:58.154Z,24.56
2018-08-22T00:29:25.139Z,24.56
2018-08-22T00:31:52.145Z,24.56
2018-08-22T00:34:19.125Z,24.56
2018-08-22T00:36:46.313Z,24.56
2018-08-22T00:39:13.303Z,24.56
2018-08-22T00:41:40.270Z,24.56
2018-08-22T00:44:07.221Z,24.56
2018-08-22T00:46:34.365Z,24.57
2018-08-22T00:49:01.323Z,24.55
2018-08-22T00:51:28.296Z,24.56
2018-08-22T00:53:55.321Z,24.56
2018-08-22T00:56:22.282Z,24.56
2018-08-22T00:58:49.331Z,24.57
2018-08-22T01:01:16.268Z,24.55
2018-08-22T01:03:43.208Z,24.57
2018-08-22T01:06:10.164Z,24.56
2018-08-22T01:08:37.113Z,24.56
2018-08-22T01:11:04.093Z,24.55
2018-08-22T01:13:31.106Z,24.57
2018-08-22T01:15:58.115Z,24.56
2018-08-22T01:18:25.061Z,24.56
2018-08-22T01:20:52.048Z,24.56
2018-08-22T01:23:19.021Z,24.56
2018-08-22T01:25:45.978Z,24.56
2018-08-22T01:28:12.930Z,24.57
2018-08-22T01:30:39.899Z,24.56
2018-08-22T01:33:06.951Z,24.55
2018-08-22T01:35:33.901Z,24.57
2018-08-22T01:38:00.850Z,24.58
2018-08-22T01:40:27.806Z,24.56
2018-08-22T01:42:54.782Z,24.57
2018-08-22T01:45:21.802Z,24.57
2018-08-22T01:47:48.721Z,24.56
2018-08-22T01:50:15.639Z,24.57
2018-08-22T01:52:42.769Z,24.57
2018-08-22T01:55:09.737Z,24.57
2018-08-22T01:57:36.701Z,24.57
2018-08-22T02:00:03.681Z,24.56
2018-08-22T02:02:30.677Z,24.57
2018-08-22T02:04:57.711Z,24.56
2018-08-22T02:07:24.710Z,24.57
2018-08-22T02:09:51.712Z,24.56
2018-08-22T02:12:18.651Z,24.56
2018-08-22T02:14:45.638Z,24.57
2018-08-22T02:17:12.620Z,24.57
2018-08-22T02:19:39.594Z,24.57
2018-08-22T02:22:06.562Z,24.57
2018-08-22T02:24:33.554Z,24.57
2018-08-22T02:27:00.577Z,24.57
2018-08-22T02:29:27.520Z,24.58
2018-08-22T02:31:54.482Z,24.57
2018-08-22T02:34:21.492Z,24.58
2018-08-22T02:36:48.495Z,24.57
2018-08-22T02:39:15.446Z,24.57
2018-08-22T02:41:42.388Z,24.58
2018-08-22T02:44:09.313Z,24.57
2018-08-22T02:46:36.253Z,24.56
2018-08-22T02:49:03.228Z,24.56
2018-08-22T02:51:30.190Z,24.56
2018-08-22T02:53:57.202Z,24.55
2018-08-22T02:56:24.154Z,24.56
2018-08-22T02:58:51.170Z,24.55
2018-08-22T03:01:18.148Z,24.55
2018-08-22T03:03:45.219Z,24.54
2018-08-22T03:06:12.164Z,24.55
2018-08-22T03:08:39.235Z,24.61
2018-08-22T03:11:06.205Z,24.61
2018-08-22T03:13:33.150Z,24.63
2018-08-22T03:16:00.132Z,24.64
2018-08-22T03:18:27.069Z,24.67
2018-08-22T03:20:54.123Z,24.68
2018-08-22T03:23:21.207Z,24.70
2018-08-22T03:25:48.864Z,24.71
2018-08-22T03:28:15.818Z,24.72
2018-08-22T03:30:42.876Z,24.75
2018-08-22T03:33:09.840Z,24.74
2018-08-22T03:35:36.791Z,24.71
2018-08-22T03:38:03.796Z,24.69
2018-08-22T03:40:31.854Z,24.67
2018-08-22T03:42:58.878Z,24.65
2018-08-22T03:45:25.886Z,24.65
2018-08-22T03:47:52.775Z,24.65
2018-08-22T03:50:19.741Z,24.64
2018-08-22T03:52:46.712Z,24.64
2018-08-22T03:55:13.654Z,24.64
2018-08-22T03:57:41.256Z,24.64
2018-08-22T04:00:08.190Z,24.63
2018-08-22T04:02:35.604Z,24.63
2018-08-22T04:05:02.566Z,24.63
2018-08-22T04:07:29.503Z,24.63
2018-08-22T04:09:56.505Z,24.62
2018-08-22T04:12:23.479Z,24.63
2018-08-22T04:14:50.414Z,24.61
2018-08-22T04:17:17.337Z,24.62
2018-08-22T04:19:44.249Z,24.62
2018-08-22T04:22:11.211Z,24.61
2018-08-22T04:24:38.158Z,24.61
2018-08-22T04:27:05.169Z,24.61
2018-08-22T04:29:32.104Z,24.62
2018-08-22T04:31:58.986Z,24.62
2018-08-22T04:34:25.924Z,24.62
2018-08-22T04:36:52.930Z,24.61
2018-08-22T04:39:19.857Z,24.62
2018-08-22T04:41:46.803Z,24.61
2018-08-22T04:44:13.710Z,24.61
2018-08-22T04:46:40.661Z,24.61
2018-08-22T04:49:07.597Z,24.62
2018-08-22T04:51:34.494Z,24.61
2018-08-22T04:54:01.464Z,24.60
2018-08-22T04:56:28.424Z,24.61
2018-08-22T04:58:55.616Z,24.61
2018-08-22T05:01:22.607Z,24.61
2018-08-22T05:03:49.544Z,24.61
2018-08-22T05:06:16.502Z,24.61
2018-08-22T05:08:43.437Z,24.59
2018-08-22T05:11:10.378Z,24.61
2018-08-22T05:13:39.409Z,24.61
2018-08-22T05:16:06.549Z,24.61
2018-08-22T05:18:33.521Z,24.60
2018-08-22T05:21:00.481Z,24.61
2018-08-22T05:23:27.710Z,24.61
2018-08-22T05:25:54.701Z,24.61
2018-08-22T05:28:21.658Z,24.61
2018-08-22T05:30:48.615Z,24.61
2018-08-22T05:33:15.663Z,24.60
2018-08-22T05:35:42.582Z,24.60
2018-08-22T05:38:09.516Z,24.60
2018-08-22T05:40:36.540Z,24.60
2018-08-22T05:43:03.514Z,24.60
2018-08-22T05:45:30.647Z,24.60
2018-08-22T05:47:57.577Z,24.60
2018-08-22T05:50:24.490Z,24.60
2018-08-22T05:52:51.525Z,24.60
2018-08-22T05:55:18.496Z,24.45
2018-08-22T05:57:45.469Z,24.58
2018-08-22T06:00:12.386Z,24.60
2018-08-22T06:02:39.360Z,24.59
2018-08-22T06:05:06.265Z,24.59
2018-08-22T06:07:33.281Z,24.60
2018-08-22T06:10:00.299Z,24.59
2018-08-22T06:12:27.254Z,24.59
2018-08-22T06:14:54.337Z,24.60
2018-08-22T06:17:21.682Z,24.58
2018-08-22T06:19:48.816Z,24.60
2018-08-22T06:22:15.766Z,24.59
2018-08-22T06:24:43.177Z,24.59
2018-08-22T06:27:10.141Z,24.59
2018-08-22T06:29:37.098Z,24.59
2018-08-22T06:32:04.081Z,24.58
2018-08-22T06:34:31.128Z,24.59
2018-08-22T06:36:58.133Z,24.58
2018-08-22T06:39:25.166Z,24.59
2018-08-22T06:41:52.092Z,24.57
2018-08-22T06:44:19.186Z,24.58
2018-08-22T06:46:46.122Z,24.58
2018-08-22T06:49:13.099Z,24.57
2018-08-22T06:51:40.083Z,24.58
2018-08-22T06:54:07.040Z,24.57
2018-08-22T06:56:33.977Z,24.58
2018-08-22T06:59:00.914Z,24.58
2018-08-22T07:01:27.908Z,24.58
2018-08-22T07:03:54.874Z,24.58
2018-08-22T07:06:21.911Z,24.58
2018-08-22T07:08:48.837Z,24.58
2018-08-22T07:11:15.851Z,24.58
2018-08-22T07:13:43.061Z,24.58
2018-08-22T07:16:10.080Z,24.57
2018-08-22T07:18:37.000Z,24.50
2018-08-22T07:21:05.808Z,24.43
2018-08-22T07:23:32.665Z,24.34
2018-08-22T07:25:59.550Z,24.23
2018-08-22T07:28:26.492Z,24.30
2018-08-22T07:30:53.453Z,24.32
2018-08-22T07:33:20.457Z,24.22
2018-08-22T07:35:47.387Z,24.33
2018-08-22T07:38:14.303Z,24.28
2018-08-22T07:40:41.200Z,24.10
2018-08-22T07:43:08.443Z,24.25
2018-08-22T07:45:35.346Z,24.25
2018-08-22T07:48:02.313Z,24.28
2018-08-22T07:50:29.261Z,24.27
2018-08-22T07:53:01.485Z,24.23
2018-08-22T07:55:28.375Z,24.25
2018-08-22T07:57:55.356Z,24.29
2018-08-22T08:00:22.258Z,24.31
2018-08-22T08:02:49.183Z,24.34
2018-08-22T08:05:16.110Z,24.34
2018-08-22T08:07:43.068Z,24.36
2018-08-22T08:10:09.964Z,24.37
2018-08-22T08:12:40.914Z,24.38
2018-08-22T08:15:07.827Z,24.39
2018-08-22T08:17:34.734Z,24.38
2018-08-22T08:20:01.638Z,24.39
2018-08-22T08:22:28.549Z,24.39
2018-08-22T08:24:55.462Z,24.39
2018-08-22T08:27:24.372Z,24.40
2018-08-22T08:29:51.717Z,24.40
2018-08-22T08:32:18.987Z,24.40
2018-08-22T08:34:45.915Z,24.40
2018-08-22T08:37:12.815Z,24.40
2018-08-22T08:39:39.749Z,24.40
2018-08-22T08:42:06.658Z,24.41
2018-08-22T08:44:33.566Z,24.42
2018-08-22T08:47:00.485Z,24.41
2018-08-22T08:49:28.000Z,24.43
2018-08-22T08:51:55.207Z,24.41
2018-08-22T08:54:22.126Z,24.42
2018-08-22T08:56:49.046Z,24.42
2018-08-22T08:59:15.962Z,24.42
2018-08-22T09:01:42.889Z,24.43
2018-08-22T09:04:09.814Z,24.42
2018-08-22T09:06:36.771Z,24.41
2018-08-22T09:09:04.062Z,24.42
2018-08-22T09:11:30.975Z,24.42
2018-08-22T09:13:57.913Z,24.43
2018-08-22T09:16:24.805Z,24.42
2018-08-22T09:18:51.800Z,24.43
2018-08-22T09:21:18.745Z,24.42
2018-08-22T09:23:45.666Z,24.43
2018-08-22T09:26:12.572Z,24.43
2018-08-22T09:28:39.468Z,24.44
2018-08-22T09:31:06.396Z,24.43
2018-08-22T09:33:33.406Z,24.43
2018-08-22T09:36:00.319Z,24.44
2018-08-22T09:38:27.196Z,24.43
2018-08-22T09:40:54.217Z,24.43
2018-08-22T09:43:21.204Z,24.44
2018-08-22T09:45:48.040Z,24.44
2018-08-22T09:48:14.929Z,24.43
2018-08-22T09:50:41.833Z,24.43
2018-08-22T09:53:08.738Z,24.43
2018-08-22T09:55:35.650Z,24.43
2018-08-22T09:58:02.618Z,24.43
2018-08-22T10:00:34.892Z,24.44
2018-08-22T10:03:01.764Z,24.44
2018-08-22T10:05:28.662Z,24.44
2018-08-22T10:07:55.644Z,24.44
2018-08-22T10:10:22.530Z,24.44
2018-08-22T10:12:49.500Z,24.44
2018-08-22T10:15:16.388Z,24.44
2018-08-22T10:17:43.293Z,24.44
2018-08-22T10:20:10.189Z,24.44
2018-08-22T10:22:37.103Z,24.44
2018-08-22T10:25:04.022Z,24.44
2018-08-22T10:27:30.962Z,24.44
2018-08-22T10:29:57.962Z,24.45
2018-08-22T10:32:24.857Z,24.46
2018-08-22T10:34:51.770Z,24.48
2018-08-22T10:37:18.669Z,24.47
2018-08-22T10:39:45.579Z,24.46
2018-08-22T10:42:12.513Z,24.45
2018-08-22T10:44:39.411Z,24.45
2018-08-22T10:47:06.329Z,24.44
2018-08-22T10:49:33.240Z,24.44
2018-08-22T10:52:00.160Z,24.45
2018-08-22T10:54:27.070Z,24.44
2018-08-22T10:56:54.009Z,24.44
2018-08-22T10:59:20.922Z,24.44
2018-08-22T11:01:47.821Z,24.43
2018-08-22T11:04:14.716Z,24.44
2018-08-22T11:06:41.683Z,24.45
2018-08-22T11:09:09.563Z,24.44
2018-08-22T11:11:36.555Z,24.45
2018-08-22T11:14:03.556Z,24.45
2018-08-22T11:16:30.453Z,24.46
2018-08-22T11:18:57.348Z,24.48
2018-08-22T11:21:24.426Z,24.50
2018-08-22T11:23:51.470Z,24.51
2018-08-22T11:26:18.504Z,24.48
2018-08-22T11:28:46.004Z,24.50
2018-08-22T11:31:12.953Z,24.49
2018-08-22T11:33:39.909Z,24.50
2018-08-22T11:36:06.934Z,24.51
2018-08-22T11:38:33.902Z,24.51
2018-08-22T11:41:00.874Z,24.51
2018-08-22T11:43:27.889Z,24.50
2018-08-22T11:45:55.045Z,24.51
2018-08-22T11:48:22.025Z,24.51
2018-08-22T11:50:49.186Z,24.51
2018-08-22T11:53:16.257Z,24.52
2018-08-22T11:55:43.287Z,24.51
2018-08-22T11:58:10.447Z,24.54
2018-08-22T12:00:37.431Z,24.57
2018-08-22T12:03:04.352Z,24.55
2018-08-22T12:05:31.298Z,24.55
2018-08-22T12:07:58.284Z,24.38
2018-08-22T12:10:29.480Z,24.53
2018-08-22T12:12:56.494Z,24.53
2018-08-22T12:15:23.479Z,24.52
2018-08-22T12:17:50.398Z,24.53
2018-08-22T12:20:17.308Z,24.52
2018-08-22T12:22:44.197Z,24.52
2018-08-22T12:25:11.092Z,24.52
2018-08-22T12:27:38.173Z,24.52
2018-08-22T12:30:05.068Z,24.53
2018-08-22T12:32:31.953Z,24.52
2018-08-22T12:34:58.875Z,24.53
2018-08-22T12:37:25.778Z,24.52
2018-08-22T12:39:52.690Z,24.53
2018-08-22T12:42:19.585Z,24.52
2018-08-22T12:44:46.575Z,24.51
2018-08-22T12:47:13.498Z,24.53
2018-08-22T12:49:40.519Z,24.53
2018-08-22T12:52:07.513Z,24.53
2018-08-22T12:54:34.424Z,24.53
2018-08-22T12:57:01.325Z,24.53
2018-08-22T12:59:28.246Z,24.54
2018-08-22T13:01:55.196Z,24.53
2018-08-22T13:04:22.135Z,24.54
2018-08-22T13:06:49.035Z,24.53
2018-08-22T13:09:15.944Z,24.54
2018-08-22T13:11:42.870Z,24.56
2018-08-22T13:14:09.858Z,24.56
2018-08-22T13:16:36.777Z,24.57
2018-08-22T13:19:03.701Z,24.55
2018-08-22T13:21:30.613Z,24.54
2018-08-22T13:23:57.683Z,24.55
2018-08-22T13:26:24.581Z,24.56
2018-08-22T13:28:51.538Z,24.58
2018-08-22T13:31:18.429Z,24.57
2018-08-22T13:33:45.389Z,24.56
2018-08-22T13:36:12.345Z,24.59
2018-08-22T13:38:39.217Z,24.62
2018-08-22T13:41:06.134Z,24.68
2018-08-22T13:43:33.052Z,24.65
2018-08-22T13:45:59.972Z,24.65
2018-08-22T13:48:26.889Z,24.65
2018-08-22T13:50:53.792Z,24.65
2018-08-22T13:53:20.693Z,24.64
2018-08-22T13:55:47.627Z,24.62
2018-08-22T13:58:14.534Z,24.61
2018-08-22T14:00:41.541Z,24.61
2018-08-22T14:03:09.086Z,24.60
2018-08-22T14:05:36.147Z,24.61
2018-08-22T14:08:03.078Z,24.66
2018-08-22T14:10:30.114Z,24.64
2018-08-22T14:12:57.170Z,24.64
2018-08-22T14:15:24.090Z,24.71
2018-08-22T14:17:51.001Z,24.65
2018-08-22T14:20:17.902Z,24.64
2018-08-22T14:22:44.818Z,24.64
2018-08-22T14:25:11.725Z,24.65
2018-08-22T14:27:38.638Z,24.65
2018-08-22T14:30:05.533Z,24.63
2018-08-22T14:32:32.533Z,24.63
2018-08-22T14:34:59.449Z,24.62
2018-08-22T14:37:26.346Z,24.63
2018-08-22T14:39:53.399Z,24.62
2018-08-22T14:42:20.303Z,24.61
2018-08-22T14:44:47.244Z,24.60
2018-08-22T14:47:14.254Z,24.62
2018-08-22T14:49:41.171Z,24.61
2018-08-22T14:52:08.052Z,24.59
2018-08-22T14:54:34.961Z,24.58
2018-08-22T14:57:01.873Z,24.59
2018-08-22T14:59:28.776Z,24.59
2018-08-22T15:01:55.738Z,24.58
2018-08-22T15:04:22.685Z,24.58
2018-08-22T15:06:49.618Z,24.58
2018-08-22T15:09:20.644Z,24.58
2018-08-22T15:11:47.593Z,24.58
2018-08-22T15:14:14.504Z,24.59
2018-08-22T15:16:41.430Z,24.59
2018-08-22T15:19:08.357Z,24.60
2018-08-22T15:21:35.280Z,24.59
2018-08-22T15:24:02.187Z,24.61
2018-08-22T15:26:29.085Z,24.61
2018-08-22T15:28:56.032Z,24.62
2018-08-22T15:31:22.938Z,24.61
2018-08-22T15:33:49.841Z,24.61
2018-08-22T15:36:16.739Z,24.63
2018-08-22T15:38:43.679Z,24.64
2018-08-22T15:41:10.634Z,24.63
2018-08-22T15:43:37.512Z,24.62
2018-08-22T15:46:04.446Z,24.60
2018-08-22T15:48:31.466Z,24.60
2018-08-22T15:50:58.708Z,24.61
2018-08-22T15:53:25.698Z,24.60
2018-08-22T15:55:52.604Z,24.60
2018-08-22T15:58:19.524Z,24.61
2018-08-22T16:00:49.481Z,24.61
2018-08-22T16:03:16.384Z,24.61
2018-08-22T16:05:44.258Z,24.62
2018-08-22T16:08:11.854Z,24.62
2018-08-22T16:10:38.763Z,24.64
2018-08-22T16:13:05.670Z,24.58
2018-08-22T16:15:32.602Z,24.61
2018-08-22T16:17:59.509Z,24.60
2018-08-22T16:20:27.294Z,24.59
2018-08-22T16:22:54.417Z,24.58
2018-08-22T16:25:21.374Z,24.58
2018-08-22T16:27:51.706Z,24.57
2018-08-22T16:30:19.048Z,24.57
2018-08-22T16:32:45.945Z,24.58
2018-08-22T16:35:12.857Z,24.57
2018-08-22T16:37:39.873Z,24.57
2018-08-22T16:40:06.778Z,24.57
2018-08-22T16:42:37.790Z,24.57
2018-08-22T16:45:04.708Z,24.57
2018-08-22T16:47:35.049Z,24.57
2018-08-22T16:50:01.997Z,24.58
2018-08-22T16:52:28.888Z,24.57
2018-08-22T16:54:55.786Z,24.57
2018-08-22T16:57:22.674Z,24.57
2018-08-22T16:59:49.569Z,24.57
2018-08-22T17:02:16.474Z,24.58
2018-08-22T17:04:43.372Z,24.57
2018-08-22T17:07:15.673Z,24.58
2018-08-22T17:09:42.586Z,24.57
2018-08-22T17:12:09.485Z,24.57
2018-08-22T17:14:36.393Z,24.57
2018-08-22T17:17:03.324Z,24.58
2018-08-22T17:19:30.270Z,24.58
2018-08-22T17:21:57.194Z,24.60
2018-08-22T17:24:24.073Z,24.59
2018-08-22T17:26:50.994Z,24.58
2018-08-22T17:29:17.928Z,24.58
2018-08-22T17:31:44.902Z,24.60
2018-08-22T17:34:12.284Z,24.61
2018-08-22T17:36:39.457Z,24.60
2018-08-22T17:39:06.349Z,24.61
2018-08-22T17:41:33.270Z,24.62
2018-08-22T17:44:05.445Z,24.63
2018-08-22T17:46:32.361Z,24.64
2018-08-22T17:48:59.508Z,24.63
2018-08-22T17:51:26.546Z,24.65
2018-08-22T17:53:53.454Z,24.67
2018-08-22T17:56:20.896Z,24.68
2018-08-22T17:58:47.868Z,24.71
2018-08-22T18:01:14.825Z,24.72
2018-08-22T18:03:41.783Z,24.72
2018-08-22T18:06:08.676Z,24.72
2018-08-22T18:08:35.566Z,24.71
2018-08-22T18:11:02.456Z,24.73
2018-08-22T18:13:29.356Z,24.73
2018-08-22T18:15:56.256Z,24.72
2018-08-22T18:18:23.178Z,24.71
2018-08-22T18:20:50.720Z,24.70
2018-08-22T18:23:18.078Z,24.70
2018-08-22T18:26:01.951Z,24.70
2018-08-22T18:28:29.173Z,24.73
2018-08-22T18:30:56.130Z,24.71
2018-08-22T18:33:23.017Z,24.69
2018-08-22T18:35:49.957Z,24.71
2018-08-22T18:38:16.890Z,24.71
2018-08-22T18:40:43.838Z,24.69
2018-08-22T18:43:10.721Z,24.71
2018-08-22T18:45:37.648Z,24.70
2018-08-22T18:48:05.568Z,24.71
2018-08-22T18:50:32.487Z,24.70
2018-08-22T18:53:00.683Z,24.69
2018-08-22T18:55:29.720Z,24.69
2018-08-22T18:57:57.731Z,24.69
2018-08-22T19:00:24.632Z,24.71
2018-08-22T19:02:52.758Z,24.71
2018-08-22T19:05:21.909Z,24.71
2018-08-22T19:07:49.292Z,24.71
2018-08-22T19:10:16.944Z,24.72
2018-08-22T19:12:43.921Z,24.71
2018-08-22T19:15:11.406Z,24.71
2018-08-22T19:17:38.617Z,24.71
2018-08-22T19:20:05.623Z,24.72
2018-08-22T19:22:32.513Z,24.73
2018-08-22T19:25:04.407Z,24.74
2018-08-22T19:27:32.250Z,24.73
2018-08-22T19:29:59.610Z,24.72
2018-08-22T19:32:26.549Z,24.72
2018-08-22T19:34:55.203Z,24.72
2018-08-22T19:37:22.150Z,24.71
2018-08-22T19:39:49.236Z,24.71
2018-08-22T19:42:16.126Z,24.71
2018-08-22T19:44:43.817Z,24.73
2018-08-22T19:47:10.763Z,24.71
2018-08-22T19:49:38.010Z,24.71
2018-08-22T19:52:04.958Z,24.72
2018-08-22T19:54:32.164Z,24.73
2018-08-22T19:56:59.340Z,24.73
2018-08-22T19:59:26.820Z,24.73
2018-08-22T20:01:54.386Z,24.73
2018-08-22T20:04:21.599Z,24.73
2018-08-22T20:06:48.882Z,24.74
2018-08-22T20:09:16.347Z,24.74
2018-08-22T20:11:43.878Z,24.74
2018-08-22T20:14:11.736Z,24.74
2018-08-22T20:16:38.868Z,24.74
2018-08-22T20:19:06.055Z,24.73
2018-08-22T20:21:34.323Z,24.73
2018-08-22T20:24:02.246Z,24.74
2018-08-22T20:26:29.756Z,24.76
2018-08-22T20:28:57.979Z,24.75
2018-08-22T20:31:25.263Z,24.74
2018-08-22T20:33:52.879Z,24.74
2018-08-22T20:36:20.320Z,24.74
2018-08-22T20:38:47.411Z,24.75
2018-08-22T20:41:14.901Z,24.75
2018-08-22T20:43:42.202Z,24.76
2018-08-22T20:46:09.896Z,24.76
2018-08-22T20:48:36.977Z,24.77
2018-08-22T20:51:04.440Z,24.76
2018-08-22T20:53:31.902Z,24.76
2018-08-22T20:55:59.150Z,24.76
2018-08-22T20:58:30.492Z,24.77
2018-08-22T21:00:57.457Z,24.76
2018-08-22T21:03:24.357Z,24.77
2018-08-22T21:05:51.258Z,24.77
2018-08-22T21:08:18.401Z,24.76
2018-08-22T21:10:45.610Z,24.77
2018-08-22T21:13:18.954Z,24.78
2018-08-22T21:15:46.279Z,24.77
2018-08-22T21:18:13.526Z,24.78
2018-08-22T21:20:40.470Z,24.78
2018-08-22T21:23:07.362Z,24.77
2018-08-22T21:25:34.246Z,24.77
2018-08-22T21:28:01.153Z,24.78
2018-08-22T21:30:28.105Z,24.77
2018-08-22T21:32:55.030Z,24.77
2018-08-22T21:35:24.666Z,24.79
2018-08-22T21:37:51.598Z,24.78
2018-08-22T21:40:18.497Z,24.77
2018-08-22T21:42:45.415Z,24.77
2018-08-22T21:45:12.313Z,24.79
2018-08-22T21:47:39.234Z,24.77
2018-08-22T21:50:06.134Z,24.78
2018-08-22T21:52:33.035Z,24.78
2018-08-22T21:55:00.063Z,24.79
2018-08-22T21:57:26.872Z,24.78
2018-08-22T21:59:59.225Z,24.77
2018-08-22T22:02:26.217Z,24.78
2018-08-22T22:04:54.668Z,24.78
2018-08-22T22:07:22.410Z,24.78
2018-08-22T22:09:49.535Z,24.79
2018-08-22T22:12:21.682Z,24.79
2018-08-22T22:14:49.264Z,24.79
2018-08-22T22:17:16.404Z,24.79
2018-08-22T22:19:43.295Z,24.80
2018-08-22T22:22:10.200Z,24.79
2018-08-22T22:24:39.060Z,24.79
2018-08-22T22:27:05.945Z,24.79
2018-08-22T22:29:33.460Z,24.78
2018-08-22T22:32:00.519Z,24.78
2018-08-22T22:34:27.422Z,24.78
2018-08-22T22:36:54.332Z,24.78
2018-08-22T22:39:25.453Z,24.78
2018-08-22T22:41:52.326Z,24.77
2018-08-22T22:44:19.224Z,24.79
2018-08-22T22:46:46.118Z,24.77
2018-08-22T22:49:12.995Z,24.78
2018-08-22T22:51:39.903Z,24.77
2018-08-22T22:54:06.785Z,24.79
2018-08-22T22:56:33.686Z,24.77
2018-08-22T22:59:00.575Z,24.78
2018-08-22T23:01:27.518Z,24.77
2018-08-22T23:03:54.417Z,24.77
2018-08-22T23:06:21.308Z,24.76
2018-08-22T23:08:48.186Z,24.77
2018-08-22T23:11:15.100Z,24.77
2018-08-22T23:13:41.982Z,24.77
2018-08-22T23:16:08.880Z,24.76
2018-08-22T23:18:35.837Z,24.77
2018-08-22T23:21:02.688Z,24.76
2018-08-22T23:23:44.004Z,24.76
2018-08-22T23:26:19.723Z,24.76
2018-08-22T23:28:46.598Z,24.76
2018-08-22T23:31:13.488Z,24.76
2018-08-22T23:33:40.370Z,24.76
2018-08-22T23:36:07.285Z,24.76
2018-08-22T23:38:36.629Z,24.76
2018-08-22T23:41:03.896Z,24.75
2018-08-22T23:43:30.845Z,24.75
2018-08-22T23:45:58.425Z,24.74
2018-08-22T23:48:30.756Z,24.76
2018-08-22T23:50:58.828Z,24.77
2018-08-22T23:53:25.707Z,24.76
2018-08-22T23:55:52.640Z,24.76
2018-08-22T23:58:19.516Z,24.75
